createdAt,value
2018-07-23T00:00:15.184Z,0
2018-07-23T00:00:40.763Z,0
2018-07-23T00:01:06.327Z,0
2018-07-23T00:01:31.879Z,0
2018-07-23T00:01:57.451Z,0
2018-07-23T00:02:23.037Z,0
2018-07-23T00:02:48.607Z,0
2018-07-23T00:03:14.166Z,0
2018-07-23T00:03:39.736Z,0
2018-07-23T00:04:05.308Z,0
2018-07-23T00:04:30.860Z,0
2018-07-23T00:04:56.438Z,0
2018-07-23T00:05:22.011Z,0
2018-07-23T00:05:47.603Z,0
2018-07-23T00:06:13.194Z,0
2018-07-23T00:06:38.761Z,0
2018-07-23T00:07:04.347Z,0
2018-07-23T00:07:29.941Z,0
2018-07-23T00:07:55.496Z,0
2018-07-23T00:08:21.044Z,0
2018-07-23T00:08:46.653Z,0
2018-07-23T00:09:12.210Z,0
2018-07-23T00:09:37.768Z,0
2018-07-23T00:10:03.454Z,0
2018-07-23T00:10:28.958Z,0
2018-07-23T00:10:54.529Z,0
2018-07-23T00:11:20.118Z,0
2018-07-23T00:11:45.673Z,0
2018-07-23T00:12:11.223Z,0
2018-07-23T00:12:36.806Z,0
2018-07-23T00:13:02.398Z,0
2018-07-23T00:13:27.981Z,0
2018-07-23T00:13:53.538Z,0
2018-07-23T00:14:19.094Z,0
2018-07-23T00:14:44.676Z,0
2018-07-23T00:15:10.246Z,0
2018-07-23T00:15:35.844Z,0
2018-07-23T00:16:01.466Z,0
2018-07-23T00:16:27.062Z,0
2018-07-23T00:16:52.616Z,0
2018-07-23T00:17:18.179Z,0
2018-07-23T00:17:43.762Z,0
2018-07-23T00:18:09.300Z,0
2018-07-23T00:18:34.879Z,0
2018-07-23T00:19:00.431Z,0
2018-07-23T00:19:26.012Z,0
2018-07-23T00:19:51.558Z,0
2018-07-23T00:20:17.143Z,0
2018-07-23T00:20:42.700Z,0
2018-07-23T00:21:08.322Z,0
2018-07-23T00:21:33.910Z,0
2018-07-23T00:21:59.489Z,0
2018-07-23T00:22:25.076Z,0
2018-07-23T00:22:50.659Z,0
2018-07-23T00:23:16.226Z,0
2018-07-23T00:23:41.811Z,0
2018-07-23T00:24:07.368Z,0
2018-07-23T00:24:32.980Z,0
2018-07-23T00:24:58.539Z,0
2018-07-23T00:25:24.094Z,0
2018-07-23T00:25:49.664Z,0
2018-07-23T00:26:15.238Z,0
2018-07-23T00:26:40.804Z,0
2018-07-23T00:27:06.360Z,0
2018-07-23T00:27:31.912Z,0
2018-07-23T00:27:57.479Z,0
2018-07-23T00:28:23.030Z,0
2018-07-23T00:28:48.600Z,0
2018-07-23T00:29:14.160Z,0
2018-07-23T00:29:39.703Z,0
2018-07-23T00:30:05.269Z,0
2018-07-23T00:30:30.828Z,0
2018-07-23T00:30:56.398Z,0
2018-07-23T00:31:21.970Z,0
2018-07-23T00:31:47.527Z,0
2018-07-23T00:32:13.100Z,0
2018-07-23T00:32:38.670Z,0
2018-07-23T00:33:04.232Z,0
2018-07-23T00:33:29.828Z,0
2018-07-23T00:33:55.373Z,0
2018-07-23T00:34:20.943Z,0
2018-07-23T00:34:46.510Z,0
2018-07-23T00:35:12.091Z,0
2018-07-23T00:35:37.654Z,0
2018-07-23T00:36:03.203Z,0
2018-07-23T00:36:28.768Z,0
2018-07-23T00:36:54.312Z,0
2018-07-23T00:37:19.880Z,0
2018-07-23T00:37:45.455Z,0
2018-07-23T00:38:11.034Z,0
2018-07-23T00:38:36.584Z,0
2018-07-23T00:39:02.139Z,0
2018-07-23T00:39:27.677Z,0
2018-07-23T00:39:53.252Z,0
2018-07-23T00:40:18.806Z,0
2018-07-23T00:40:44.363Z,0
2018-07-23T00:41:09.917Z,0
2018-07-23T00:41:35.490Z,0
2018-07-23T00:42:01.064Z,0
2018-07-23T00:42:26.640Z,0
2018-07-23T00:42:52.200Z,0
2018-07-23T00:43:17.732Z,0
2018-07-23T00:43:43.346Z,0
2018-07-23T00:44:08.873Z,0
2018-07-23T00:44:34.431Z,0
2018-07-23T00:44:59.992Z,0
2018-07-23T00:45:25.566Z,0
2018-07-23T00:45:51.134Z,0
2018-07-23T00:46:16.710Z,0
2018-07-23T00:46:42.266Z,0
2018-07-23T00:47:07.841Z,0
2018-07-23T00:47:33.419Z,0
2018-07-23T00:47:58.978Z,0
2018-07-23T00:48:24.552Z,0
2018-07-23T00:48:50.125Z,0
2018-07-23T00:49:15.701Z,0
2018-07-23T00:49:41.256Z,0
2018-07-23T00:50:06.830Z,0
2018-07-23T00:50:32.371Z,0
2018-07-23T00:50:57.938Z,0
2018-07-23T00:51:23.481Z,0
2018-07-23T00:51:49.025Z,0
2018-07-23T00:52:14.617Z,0
2018-07-23T00:52:40.201Z,0
2018-07-23T00:53:05.747Z,0
2018-07-23T00:53:31.330Z,0
2018-07-23T00:53:56.909Z,0
2018-07-23T00:54:22.480Z,0
2018-07-23T00:54:48.044Z,0
2018-07-23T00:55:13.604Z,0
2018-07-23T00:55:39.174Z,0
2018-07-23T00:56:04.748Z,0
2018-07-23T00:56:30.313Z,0
2018-07-23T00:56:55.886Z,0
2018-07-23T00:57:21.434Z,0
2018-07-23T00:57:47.006Z,0
2018-07-23T00:58:12.566Z,0
2018-07-23T00:58:38.124Z,0
2018-07-23T00:59:03.695Z,0
2018-07-23T00:59:29.287Z,0
2018-07-23T00:59:54.883Z,0
2018-07-23T01:00:20.438Z,0
2018-07-23T01:00:46.000Z,0
2018-07-23T01:01:12.198Z,0
2018-07-23T01:01:37.743Z,0
2018-07-23T01:02:03.321Z,0
2018-07-23T01:02:28.919Z,0
2018-07-23T01:02:54.473Z,0
2018-07-23T01:03:20.048Z,0
2018-07-23T01:03:45.637Z,0
2018-07-23T01:04:11.212Z,0
2018-07-23T01:04:36.796Z,0
2018-07-23T01:05:02.372Z,0
2018-07-23T01:05:27.913Z,0
2018-07-23T01:05:53.496Z,0
2018-07-23T01:06:19.069Z,0
2018-07-23T01:06:44.653Z,0
2018-07-23T01:07:10.201Z,0
2018-07-23T01:07:35.793Z,0
2018-07-23T01:08:01.375Z,0
2018-07-23T01:08:26.938Z,0
2018-07-23T01:08:52.504Z,0
2018-07-23T01:09:18.069Z,0
2018-07-23T01:09:43.667Z,0
2018-07-23T01:10:09.193Z,0
2018-07-23T01:10:34.792Z,0
2018-07-23T01:11:00.349Z,0
2018-07-23T01:11:25.904Z,0
2018-07-23T01:11:51.455Z,0
2018-07-23T01:12:17.008Z,0
2018-07-23T01:12:42.608Z,0
2018-07-23T01:13:08.179Z,0
2018-07-23T01:13:33.771Z,0
2018-07-23T01:13:59.315Z,0
2018-07-23T01:14:24.900Z,0
2018-07-23T01:14:50.475Z,0
2018-07-23T01:15:16.061Z,0
2018-07-23T01:15:41.609Z,0
2018-07-23T01:16:07.233Z,0
2018-07-23T01:16:32.783Z,0
2018-07-23T01:16:58.353Z,0
2018-07-23T01:17:23.943Z,0
2018-07-23T01:17:49.486Z,0
2018-07-23T01:18:15.045Z,0
2018-07-23T01:18:40.619Z,0
2018-07-23T01:19:06.172Z,0
2018-07-23T01:19:31.701Z,0
2018-07-23T01:19:57.246Z,0
2018-07-23T01:20:22.835Z,0
2018-07-23T01:20:48.463Z,0
2018-07-23T01:21:14.043Z,0
2018-07-23T01:21:39.618Z,0
2018-07-23T01:22:05.180Z,0
2018-07-23T01:22:30.747Z,0
2018-07-23T01:22:56.337Z,0
2018-07-23T01:23:21.920Z,0
2018-07-23T01:23:47.493Z,0
2018-07-23T01:24:13.057Z,0
2018-07-23T01:24:38.637Z,0
2018-07-23T01:25:04.194Z,0
2018-07-23T01:25:29.736Z,0
2018-07-23T01:25:55.329Z,0
2018-07-23T01:26:20.887Z,0
2018-07-23T01:26:46.460Z,0
2018-07-23T01:27:12.013Z,0
2018-07-23T01:27:37.573Z,0
2018-07-23T01:28:03.157Z,0
2018-07-23T01:28:28.724Z,0
2018-07-23T01:28:54.287Z,0
2018-07-23T01:29:19.856Z,0
2018-07-23T01:29:45.407Z,0
2018-07-23T01:30:10.989Z,0
2018-07-23T01:30:36.563Z,0
2018-07-23T01:31:02.129Z,0
2018-07-23T01:31:27.709Z,0
2018-07-23T01:31:53.268Z,0
2018-07-23T01:32:18.828Z,0
2018-07-23T01:32:44.419Z,0
2018-07-23T01:33:10.008Z,0
2018-07-23T01:33:35.565Z,0
2018-07-23T01:34:01.144Z,0
2018-07-23T01:34:26.715Z,0
2018-07-23T01:34:52.277Z,0
2018-07-23T01:35:17.860Z,0
2018-07-23T01:35:43.419Z,0
2018-07-23T01:36:08.974Z,0
2018-07-23T01:36:34.536Z,0
2018-07-23T01:37:00.113Z,0
2018-07-23T01:37:25.684Z,0
2018-07-23T01:37:51.296Z,0
2018-07-23T01:38:16.862Z,0
2018-07-23T01:38:42.429Z,0
2018-07-23T01:39:08.024Z,0
2018-07-23T01:39:33.588Z,0
2018-07-23T01:39:59.155Z,0
2018-07-23T01:40:24.744Z,0
2018-07-23T01:40:50.290Z,0
2018-07-23T01:41:15.866Z,0
2018-07-23T01:41:41.432Z,0
2018-07-23T01:42:07.003Z,0
2018-07-23T01:42:32.553Z,0
2018-07-23T01:42:58.165Z,0
2018-07-23T01:43:23.733Z,0
2018-07-23T01:43:49.291Z,0
2018-07-23T01:44:14.852Z,0
2018-07-23T01:44:40.392Z,0
2018-07-23T01:45:05.962Z,0
2018-07-23T01:45:31.495Z,0
2018-07-23T01:45:57.075Z,0
2018-07-23T01:46:22.644Z,0
2018-07-23T01:46:48.258Z,0
2018-07-23T01:47:13.851Z,0
2018-07-23T01:47:39.418Z,0
2018-07-23T01:48:04.992Z,0
2018-07-23T01:48:30.562Z,0
2018-07-23T01:48:56.136Z,0
2018-07-23T01:49:21.710Z,0
2018-07-23T01:49:47.269Z,0
2018-07-23T01:50:12.831Z,0
2018-07-23T01:50:38.404Z,0
2018-07-23T01:51:03.979Z,0
2018-07-23T01:51:29.555Z,0
2018-07-23T01:51:55.119Z,0
2018-07-23T01:52:20.702Z,0
2018-07-23T01:52:46.257Z,0
2018-07-23T01:53:11.824Z,0
2018-07-23T01:53:37.392Z,0
2018-07-23T01:54:02.941Z,0
2018-07-23T01:54:28.497Z,0
2018-07-23T01:54:54.080Z,0
2018-07-23T01:55:19.650Z,0
2018-07-23T01:55:45.194Z,0
2018-07-23T01:56:10.762Z,0
2018-07-23T01:56:36.323Z,0
2018-07-23T01:57:01.849Z,0
2018-07-23T01:57:27.400Z,0
2018-07-23T01:57:52.973Z,0
2018-07-23T01:58:18.553Z,0
2018-07-23T01:58:44.140Z,0
2018-07-23T01:59:09.716Z,0
2018-07-23T01:59:35.268Z,0
2018-07-23T02:00:00.843Z,0
2018-07-23T02:00:26.407Z,0
2018-07-23T02:00:51.952Z,0
2018-07-23T02:01:17.515Z,0
2018-07-23T02:01:43.076Z,0
2018-07-23T02:02:08.667Z,0
2018-07-23T02:02:34.214Z,0
2018-07-23T02:02:59.776Z,0
2018-07-23T02:03:25.333Z,0
2018-07-23T02:03:50.894Z,0
2018-07-23T02:04:16.478Z,0
2018-07-23T02:04:42.024Z,0
2018-07-23T02:05:07.600Z,0
2018-07-23T02:05:33.147Z,0
2018-07-23T02:05:58.714Z,0
2018-07-23T02:06:24.274Z,0
2018-07-23T02:06:49.844Z,0
2018-07-23T02:07:15.423Z,0
2018-07-23T02:07:40.972Z,0
2018-07-23T02:08:06.539Z,0
2018-07-23T02:08:32.105Z,0
2018-07-23T02:08:57.661Z,0
2018-07-23T02:09:23.227Z,0
2018-07-23T02:09:48.792Z,0
2018-07-23T02:10:14.322Z,0
2018-07-23T02:10:39.907Z,0
2018-07-23T02:11:05.463Z,0
2018-07-23T02:11:31.025Z,0
2018-07-23T02:11:56.643Z,0
2018-07-23T02:12:22.189Z,0
2018-07-23T02:12:47.783Z,0
2018-07-23T02:13:13.344Z,0
2018-07-23T02:13:38.941Z,0
2018-07-23T02:14:04.515Z,0
2018-07-23T02:14:30.103Z,0
2018-07-23T02:14:55.670Z,0
2018-07-23T02:15:21.239Z,0
2018-07-23T02:15:46.795Z,0
2018-07-23T02:16:12.368Z,0
2018-07-23T02:16:37.938Z,0
2018-07-23T02:17:03.523Z,0
2018-07-23T02:17:29.047Z,0
2018-07-23T02:17:54.624Z,0
2018-07-23T02:18:20.248Z,0
2018-07-23T02:18:45.757Z,0
2018-07-23T02:19:11.320Z,0
2018-07-23T02:19:36.895Z,0
2018-07-23T02:20:02.473Z,0
2018-07-23T02:20:28.020Z,0
2018-07-23T02:20:53.565Z,0
2018-07-23T02:21:19.111Z,0
2018-07-23T02:21:44.697Z,0
2018-07-23T02:22:10.262Z,0
2018-07-23T02:22:35.826Z,0
2018-07-23T02:23:01.397Z,0
2018-07-23T02:23:26.959Z,0
2018-07-23T02:23:52.533Z,0
2018-07-23T02:24:19.088Z,0
2018-07-23T02:24:45.139Z,0
2018-07-23T02:25:10.694Z,0
2018-07-23T02:25:36.295Z,0
2018-07-23T02:26:01.917Z,0
2018-07-23T02:26:27.487Z,0
2018-07-23T02:26:53.048Z,0
2018-07-23T02:27:18.601Z,0
2018-07-23T02:27:44.161Z,0
2018-07-23T02:28:09.720Z,0
2018-07-23T02:28:35.278Z,0
2018-07-23T02:29:00.839Z,0
2018-07-23T02:29:26.406Z,0
2018-07-23T02:29:51.981Z,0
2018-07-23T02:30:17.512Z,0
2018-07-23T02:30:43.114Z,0
2018-07-23T02:31:08.691Z,0
2018-07-23T02:31:34.265Z,0
2018-07-23T02:31:59.851Z,0
2018-07-23T02:32:25.436Z,0
2018-07-23T02:32:50.993Z,0
2018-07-23T02:33:16.538Z,0
2018-07-23T02:33:42.085Z,0
2018-07-23T02:34:07.639Z,0
2018-07-23T02:34:33.190Z,0
2018-07-23T02:34:58.827Z,0
2018-07-23T02:35:24.322Z,0
2018-07-23T02:35:49.911Z,0
2018-07-23T02:36:15.467Z,0
2018-07-23T02:36:41.024Z,0
2018-07-23T02:37:06.609Z,0
2018-07-23T02:37:32.202Z,0
2018-07-23T02:37:57.773Z,0
2018-07-23T02:38:23.329Z,0
2018-07-23T02:38:48.878Z,0
2018-07-23T02:39:14.466Z,0
2018-07-23T02:39:40.018Z,0
2018-07-23T02:40:05.670Z,0
2018-07-23T02:40:31.225Z,0
2018-07-23T02:40:56.767Z,0
2018-07-23T02:41:22.312Z,0
2018-07-23T02:41:47.899Z,0
2018-07-23T02:42:13.473Z,0
2018-07-23T02:42:39.075Z,0
2018-07-23T02:43:04.656Z,0
2018-07-23T02:43:30.225Z,0
2018-07-23T02:43:55.779Z,0
2018-07-23T02:44:21.348Z,0
2018-07-23T02:44:46.924Z,0
2018-07-23T02:45:12.496Z,0
2018-07-23T02:45:38.054Z,0
2018-07-23T02:46:03.623Z,0
2018-07-23T02:46:29.200Z,0
2018-07-23T02:46:54.720Z,0
2018-07-23T02:47:20.380Z,0
2018-07-23T02:47:45.936Z,0
2018-07-23T02:48:11.562Z,0
2018-07-23T02:48:37.199Z,0
2018-07-23T02:49:02.779Z,0
2018-07-23T02:49:28.324Z,0
2018-07-23T02:49:53.898Z,0
2018-07-23T02:50:19.533Z,0
2018-07-23T02:50:45.109Z,0
2018-07-23T02:51:10.676Z,0
2018-07-23T02:51:36.267Z,0
2018-07-23T02:52:01.797Z,0
2018-07-23T02:52:27.387Z,0
2018-07-23T02:52:52.960Z,0
2018-07-23T02:53:18.567Z,0
2018-07-23T02:53:44.126Z,0
2018-07-23T02:54:09.686Z,0
2018-07-23T02:54:35.262Z,0
2018-07-23T02:55:00.843Z,0
2018-07-23T02:55:26.390Z,0
2018-07-23T02:55:51.976Z,0
2018-07-23T02:56:17.559Z,0
2018-07-23T02:56:43.138Z,0
2018-07-23T02:57:08.762Z,0
2018-07-23T02:57:34.341Z,0
2018-07-23T02:57:59.864Z,0
2018-07-23T02:58:25.437Z,0
2018-07-23T02:58:51.004Z,0
2018-07-23T02:59:16.594Z,0
2018-07-23T02:59:42.271Z,0
2018-07-23T03:00:07.771Z,0
2018-07-23T03:00:33.363Z,0
2018-07-23T03:00:58.965Z,0
2018-07-23T03:01:24.589Z,0
2018-07-23T03:01:50.173Z,0
2018-07-23T03:02:15.744Z,0
2018-07-23T03:02:41.323Z,0
2018-07-23T03:03:06.964Z,0
2018-07-23T03:03:32.828Z,0
2018-07-23T03:03:58.512Z,0
2018-07-23T03:04:24.082Z,0
2018-07-23T03:04:49.648Z,0
2018-07-23T03:05:15.243Z,0
2018-07-23T03:05:40.815Z,0
2018-07-23T03:06:06.374Z,0
2018-07-23T03:06:31.923Z,0
2018-07-23T03:06:57.496Z,0
2018-07-23T03:07:23.059Z,0
2018-07-23T03:07:48.628Z,0
2018-07-23T03:08:14.279Z,0
2018-07-23T03:08:39.843Z,0
2018-07-23T03:09:05.425Z,0
2018-07-23T03:09:31.069Z,0
2018-07-23T03:09:56.711Z,0
2018-07-23T03:10:22.265Z,0
2018-07-23T03:10:47.842Z,0
2018-07-23T03:11:13.414Z,0
2018-07-23T03:11:39.007Z,0
2018-07-23T03:12:04.557Z,0
2018-07-23T03:12:30.111Z,0
2018-07-23T03:12:55.653Z,0
2018-07-23T03:13:21.226Z,0
2018-07-23T03:13:46.814Z,0
2018-07-23T03:14:12.371Z,0
2018-07-23T03:14:37.949Z,0
2018-07-23T03:15:03.533Z,0
2018-07-23T03:15:29.115Z,0
2018-07-23T03:15:54.736Z,0
2018-07-23T03:16:20.365Z,0
2018-07-23T03:16:45.862Z,0
2018-07-23T03:17:11.513Z,0
2018-07-23T03:17:37.070Z,0
2018-07-23T03:18:02.704Z,0
2018-07-23T03:18:28.232Z,0
2018-07-23T03:18:53.802Z,0
2018-07-23T03:19:19.362Z,0
2018-07-23T03:19:44.977Z,0
2018-07-23T03:20:10.559Z,0
2018-07-23T03:20:36.108Z,0
2018-07-23T03:21:01.665Z,0
2018-07-23T03:21:27.231Z,0
2018-07-23T03:21:52.841Z,0
2018-07-23T03:22:18.377Z,0
2018-07-23T03:22:43.937Z,0
2018-07-23T03:23:09.530Z,0
2018-07-23T03:23:35.169Z,0
2018-07-23T03:24:00.775Z,0
2018-07-23T03:24:26.373Z,0
2018-07-23T03:24:51.933Z,0
2018-07-23T03:25:17.532Z,0
2018-07-23T03:25:43.086Z,0
2018-07-23T03:26:08.671Z,0
2018-07-23T03:26:34.256Z,0
2018-07-23T03:26:59.950Z,0
2018-07-23T03:27:25.601Z,0
2018-07-23T03:27:51.269Z,0
2018-07-23T03:28:16.833Z,0
2018-07-23T03:28:42.458Z,0
2018-07-23T03:29:08.140Z,0
2018-07-23T03:29:33.686Z,0
2018-07-23T03:29:59.302Z,0
2018-07-23T03:30:24.872Z,0
2018-07-23T03:30:50.472Z,4
2018-07-23T03:31:16.135Z,4
2018-07-23T03:31:41.738Z,4
2018-07-23T03:32:07.521Z,4
2018-07-23T03:32:34.118Z,4
2018-07-23T03:32:59.789Z,4
2018-07-23T03:33:25.300Z,4
2018-07-23T03:33:50.961Z,4
2018-07-23T03:34:16.570Z,4
2018-07-23T03:34:42.212Z,4
2018-07-23T03:35:07.766Z,0
2018-07-23T03:35:33.340Z,0
2018-07-23T03:35:58.880Z,0
2018-07-23T03:36:24.438Z,0
2018-07-23T03:36:50.057Z,0
2018-07-23T03:37:15.604Z,0
2018-07-23T03:37:41.185Z,0
2018-07-23T03:38:06.777Z,0
2018-07-23T03:38:32.354Z,0
2018-07-23T03:38:57.923Z,4
2018-07-23T03:39:23.481Z,4
2018-07-23T03:39:49.066Z,4
2018-07-23T03:40:14.668Z,4
2018-07-23T03:40:40.290Z,4
2018-07-23T03:41:05.922Z,4
2018-07-23T03:41:31.523Z,4
2018-07-23T03:41:57.088Z,4
2018-07-23T03:42:22.858Z,4
2018-07-23T03:42:48.779Z,4
2018-07-23T03:43:14.552Z,4
2018-07-23T03:43:40.143Z,4
2018-07-23T03:44:05.704Z,0
2018-07-23T03:44:31.467Z,0
2018-07-23T03:44:57.020Z,0
2018-07-23T03:45:22.614Z,4
2018-07-23T03:45:48.193Z,4
2018-07-23T03:46:13.766Z,4
2018-07-23T03:46:39.359Z,4
2018-07-23T03:47:04.945Z,4
2018-07-23T03:47:30.506Z,4
2018-07-23T03:47:56.105Z,4
2018-07-23T03:48:21.696Z,4
2018-07-23T03:48:47.293Z,4
2018-07-23T03:49:12.904Z,4
2018-07-23T03:49:38.471Z,4
2018-07-23T03:50:04.022Z,4
2018-07-23T03:50:29.577Z,4
2018-07-23T03:50:55.121Z,4
2018-07-23T03:51:20.689Z,4
2018-07-23T03:51:46.328Z,4
2018-07-23T03:52:11.887Z,4
2018-07-23T03:52:37.448Z,4
2018-07-23T03:53:03.021Z,4
2018-07-23T03:53:28.637Z,4
2018-07-23T03:53:54.122Z,8
2018-07-23T03:54:19.679Z,8
2018-07-23T03:54:45.268Z,8
2018-07-23T03:55:10.810Z,8
2018-07-23T03:55:36.370Z,8
2018-07-23T03:56:01.957Z,8
2018-07-23T03:56:27.512Z,8
2018-07-23T03:56:53.096Z,8
2018-07-23T03:57:18.748Z,8
2018-07-23T03:57:44.263Z,8
2018-07-23T03:58:09.889Z,8
2018-07-23T03:58:35.457Z,8
2018-07-23T03:59:01.041Z,8
2018-07-23T03:59:26.653Z,8
2018-07-23T03:59:52.221Z,8
2018-07-23T04:00:17.832Z,4
2018-07-23T04:00:43.374Z,4
2018-07-23T04:01:08.977Z,4
2018-07-23T04:01:34.486Z,4
2018-07-23T04:02:00.043Z,4
2018-07-23T04:02:25.664Z,4
2018-07-23T04:02:51.230Z,4
2018-07-23T04:03:16.810Z,4
2018-07-23T04:03:42.371Z,4
2018-07-23T04:04:07.930Z,4
2018-07-23T04:04:33.504Z,4
2018-07-23T04:04:59.083Z,4
2018-07-23T04:05:24.684Z,4
2018-07-23T04:05:50.308Z,4
2018-07-23T04:06:15.874Z,8
2018-07-23T04:06:41.522Z,8
2018-07-23T04:07:07.100Z,8
2018-07-23T04:07:32.686Z,8
2018-07-23T04:07:58.236Z,8
2018-07-23T04:08:23.787Z,8
2018-07-23T04:08:49.366Z,8
2018-07-23T04:09:14.959Z,8
2018-07-23T04:09:40.559Z,8
2018-07-23T04:10:06.188Z,8
2018-07-23T04:10:31.673Z,8
2018-07-23T04:10:57.267Z,8
2018-07-23T04:11:22.837Z,8
2018-07-23T04:11:48.436Z,8
2018-07-23T04:12:14.000Z,8
2018-07-23T04:12:39.603Z,8
2018-07-23T04:13:05.207Z,8
2018-07-23T04:13:30.759Z,8
2018-07-23T04:13:56.331Z,8
2018-07-23T04:14:21.926Z,8
2018-07-23T04:14:47.530Z,8
2018-07-23T04:15:13.104Z,8
2018-07-23T04:15:38.657Z,8
2018-07-23T04:16:04.221Z,8
2018-07-23T04:16:29.769Z,12
2018-07-23T04:16:55.341Z,12
2018-07-23T04:17:20.896Z,8
2018-07-23T04:17:46.447Z,8
2018-07-23T04:18:12.052Z,8
2018-07-23T04:18:37.589Z,8
2018-07-23T04:19:03.167Z,8
2018-07-23T04:19:28.749Z,8
2018-07-23T04:19:54.313Z,8
2018-07-23T04:20:19.853Z,8
2018-07-23T04:20:45.423Z,12
2018-07-23T04:21:10.975Z,12
2018-07-23T04:21:36.534Z,12
2018-07-23T04:22:02.176Z,12
2018-07-23T04:22:27.791Z,12
2018-07-23T04:22:53.404Z,12
2018-07-23T04:23:18.998Z,12
2018-07-23T04:23:44.597Z,12
2018-07-23T04:24:10.132Z,8
2018-07-23T04:24:35.709Z,8
2018-07-23T04:25:01.256Z,8
2018-07-23T04:25:26.821Z,12
2018-07-23T04:25:52.404Z,12
2018-07-23T04:26:17.947Z,12
2018-07-23T04:26:43.611Z,12
2018-07-23T04:27:09.200Z,12
2018-07-23T04:27:34.748Z,12
2018-07-23T04:28:00.270Z,12
2018-07-23T04:28:25.925Z,12
2018-07-23T04:28:51.411Z,12
2018-07-23T04:29:17.045Z,16
2018-07-23T04:29:42.664Z,12
2018-07-23T04:30:08.310Z,12
2018-07-23T04:30:33.914Z,12
2018-07-23T04:30:59.474Z,12
2018-07-23T04:31:25.051Z,12
2018-07-23T04:31:50.711Z,12
2018-07-23T04:32:16.283Z,12
2018-07-23T04:32:41.855Z,12
2018-07-23T04:33:07.444Z,16
2018-07-23T04:33:33.036Z,16
2018-07-23T04:33:58.628Z,16
2018-07-23T04:34:24.164Z,16
2018-07-23T04:34:49.805Z,16
2018-07-23T04:35:15.350Z,12
2018-07-23T04:35:40.906Z,12
2018-07-23T04:36:06.455Z,12
2018-07-23T04:36:32.062Z,12
2018-07-23T04:36:57.616Z,12
2018-07-23T04:37:23.178Z,12
2018-07-23T04:37:48.767Z,12
2018-07-23T04:38:14.337Z,12
2018-07-23T04:38:39.898Z,12
2018-07-23T04:39:05.421Z,12
2018-07-23T04:39:30.981Z,12
2018-07-23T04:39:56.577Z,12
2018-07-23T04:40:22.183Z,12
2018-07-23T04:40:47.769Z,12
2018-07-23T04:41:13.366Z,16
2018-07-23T04:41:38.905Z,16
2018-07-23T04:42:04.468Z,16
2018-07-23T04:42:30.043Z,16
2018-07-23T04:42:55.640Z,16
2018-07-23T04:43:21.187Z,16
2018-07-23T04:43:46.790Z,16
2018-07-23T04:44:12.344Z,32
2018-07-23T04:44:38.000Z,32
2018-07-23T04:45:03.685Z,32
2018-07-23T04:45:29.538Z,32
2018-07-23T04:45:55.180Z,36
2018-07-23T04:46:21.319Z,36
2018-07-23T04:46:47.491Z,36
2018-07-23T04:47:13.239Z,36
2018-07-23T04:47:39.163Z,36
2018-07-23T04:48:04.937Z,36
2018-07-23T04:48:31.053Z,36
2018-07-23T04:48:56.747Z,36
2018-07-23T04:49:22.727Z,32
2018-07-23T04:49:48.757Z,36
2018-07-23T04:50:14.579Z,36
2018-07-23T04:50:41.226Z,36
2018-07-23T04:51:06.908Z,36
2018-07-23T04:51:32.657Z,36
2018-07-23T04:51:58.348Z,36
2018-07-23T04:52:24.073Z,36
2018-07-23T04:52:50.082Z,36
2018-07-23T04:53:16.695Z,36
2018-07-23T04:53:43.439Z,40
2018-07-23T04:54:09.098Z,40
2018-07-23T04:54:34.703Z,40
2018-07-23T04:55:00.383Z,36
2018-07-23T04:55:26.244Z,36
2018-07-23T04:55:52.117Z,36
2018-07-23T04:56:18.137Z,40
2018-07-23T04:56:44.260Z,40
2018-07-23T04:57:10.092Z,40
2018-07-23T04:57:35.797Z,40
2018-07-23T04:58:02.244Z,40
2018-07-23T04:58:27.896Z,40
2018-07-23T04:58:54.417Z,40
2018-07-23T04:59:20.290Z,40
2018-07-23T04:59:45.946Z,40
2018-07-23T05:00:11.891Z,40
2018-07-23T05:01:37.481Z,44
2018-07-23T05:02:03.090Z,44
2018-07-23T05:02:29.267Z,40
2018-07-23T05:02:54.865Z,44
2018-07-23T05:03:20.714Z,44
2018-07-23T05:03:46.563Z,44
2018-07-23T05:04:12.266Z,44
2018-07-23T05:04:38.697Z,44
2018-07-23T05:05:04.665Z,44
2018-07-23T05:05:30.431Z,44
2018-07-23T05:05:56.186Z,44
2018-07-23T05:06:21.760Z,44
2018-07-23T05:06:47.345Z,44
2018-07-23T05:07:12.913Z,48
2018-07-23T05:07:38.477Z,48
2018-07-23T05:08:04.043Z,44
2018-07-23T05:08:29.615Z,44
2018-07-23T05:08:55.369Z,44
2018-07-23T05:09:21.587Z,44
2018-07-23T05:09:47.383Z,48
2018-07-23T05:10:13.095Z,48
2018-07-23T05:10:39.016Z,48
2018-07-23T05:11:04.870Z,48
2018-07-23T05:11:30.567Z,48
2018-07-23T05:11:56.267Z,48
2018-07-23T05:12:21.975Z,44
2018-07-23T05:12:47.706Z,44
2018-07-23T05:13:13.517Z,44
2018-07-23T05:13:39.093Z,44
2018-07-23T05:14:04.946Z,44
2018-07-23T05:14:30.620Z,44
2018-07-23T05:14:56.840Z,44
2018-07-23T05:15:22.493Z,48
2018-07-23T05:15:48.640Z,44
2018-07-23T05:16:14.378Z,48
2018-07-23T05:16:40.112Z,48
2018-07-23T05:17:05.819Z,48
2018-07-23T05:17:31.924Z,48
2018-07-23T05:17:57.573Z,48
2018-07-23T05:18:23.275Z,48
2018-07-23T05:18:49.029Z,48
2018-07-23T05:19:15.028Z,48
2018-07-23T05:19:40.633Z,44
2018-07-23T05:20:06.437Z,44
2018-07-23T05:20:32.118Z,44
2018-07-23T05:20:57.982Z,44
2018-07-23T05:21:24.025Z,48
2018-07-23T05:21:49.640Z,48
2018-07-23T05:22:15.358Z,48
2018-07-23T05:22:41.216Z,48
2018-07-23T05:23:07.019Z,48
2018-07-23T05:23:32.693Z,48
2018-07-23T05:23:58.356Z,44
2018-07-23T05:24:24.179Z,48
2018-07-23T05:24:49.861Z,48
2018-07-23T05:25:15.542Z,52
2018-07-23T05:25:41.447Z,52
2018-07-23T05:26:07.037Z,56
2018-07-23T05:26:33.395Z,56
2018-07-23T05:27:00.651Z,60
2018-07-23T05:27:26.283Z,60
2018-07-23T05:27:51.986Z,64
2018-07-23T05:28:18.064Z,68
2018-07-23T05:28:43.920Z,68
2018-07-23T05:29:09.604Z,72
2018-07-23T05:29:35.758Z,76
2018-07-23T05:30:01.804Z,80
2018-07-23T05:30:28.737Z,80
2018-07-23T05:30:54.539Z,84
2018-07-23T05:31:20.957Z,88
2018-07-23T05:31:46.931Z,88
2018-07-23T05:32:13.384Z,92
2018-07-23T05:32:39.401Z,92
2018-07-23T05:33:05.418Z,100
2018-07-23T05:33:31.063Z,100
2018-07-23T05:33:56.938Z,104
2018-07-23T05:34:25.197Z,104
2018-07-23T05:34:51.389Z,108
2018-07-23T05:35:17.116Z,108
2018-07-23T05:35:43.066Z,112
2018-07-23T05:36:08.834Z,112
2018-07-23T05:36:34.676Z,116
2018-07-23T05:37:00.389Z,116
2018-07-23T05:37:26.071Z,116
2018-07-23T05:37:51.784Z,120
2018-07-23T05:38:17.577Z,120
2018-07-23T05:38:44.312Z,124
2018-07-23T05:39:10.229Z,124
2018-07-23T05:39:36.178Z,124
2018-07-23T05:40:01.813Z,124
2018-07-23T05:40:28.281Z,124
2018-07-23T05:40:54.202Z,124
2018-07-23T05:41:19.882Z,124
2018-07-23T05:41:45.587Z,120
2018-07-23T05:42:11.413Z,124
2018-07-23T05:42:37.050Z,124
2018-07-23T05:43:02.719Z,124
2018-07-23T05:43:28.483Z,124
2018-07-23T05:43:54.303Z,124
2018-07-23T05:44:20.867Z,124
2018-07-23T05:44:46.543Z,124
2018-07-23T05:45:12.344Z,128
2018-07-23T05:45:38.078Z,128
2018-07-23T05:46:03.697Z,124
2018-07-23T05:46:29.487Z,128
2018-07-23T05:46:55.148Z,128
2018-07-23T05:47:20.962Z,128
2018-07-23T05:47:46.760Z,128
2018-07-23T05:48:12.548Z,128
2018-07-23T05:48:38.168Z,128
2018-07-23T05:49:03.964Z,132
2018-07-23T05:49:29.773Z,140
2018-07-23T05:49:55.456Z,136
2018-07-23T05:50:21.286Z,132
2018-07-23T05:50:47.316Z,132
2018-07-23T05:51:13.810Z,128
2018-07-23T05:51:39.508Z,124
2018-07-23T05:52:05.209Z,124
2018-07-23T05:52:31.218Z,124
2018-07-23T05:52:56.935Z,124
2018-07-23T05:53:22.793Z,124
2018-07-23T05:53:48.522Z,120
2018-07-23T05:54:14.166Z,124
2018-07-23T05:54:39.864Z,124
2018-07-23T05:55:05.719Z,120
2018-07-23T05:55:31.912Z,120
2018-07-23T05:55:58.249Z,120
2018-07-23T05:56:23.982Z,120
2018-07-23T05:56:49.837Z,120
2018-07-23T05:57:15.554Z,120
2018-07-23T05:57:41.421Z,120
2018-07-23T05:58:07.131Z,116
2018-07-23T05:58:32.871Z,120
2018-07-23T05:58:58.714Z,120
2018-07-23T05:59:24.404Z,120
2018-07-23T05:59:50.304Z,120
2018-07-23T06:00:15.958Z,120
2018-07-23T06:00:42.642Z,116
2018-07-23T06:01:08.282Z,116
2018-07-23T06:01:33.897Z,116
2018-07-23T06:01:59.704Z,120
2018-07-23T06:02:25.718Z,116
2018-07-23T06:02:51.516Z,116
2018-07-23T06:03:17.182Z,116
2018-07-23T06:03:43.458Z,116
2018-07-23T06:04:09.609Z,116
2018-07-23T06:04:35.513Z,112
2018-07-23T06:05:01.314Z,116
2018-07-23T06:05:27.065Z,112
2018-07-23T06:05:52.811Z,112
2018-07-23T06:06:18.662Z,112
2018-07-23T06:06:45.135Z,112
2018-07-23T06:07:10.827Z,108
2018-07-23T06:07:36.629Z,108
2018-07-23T06:08:02.428Z,112
2018-07-23T06:08:28.266Z,112
2018-07-23T06:08:53.862Z,112
2018-07-23T06:09:19.714Z,112
2018-07-23T06:09:45.294Z,112
2018-07-23T06:10:11.155Z,112
2018-07-23T06:10:36.899Z,116
2018-07-23T06:11:02.770Z,112
2018-07-23T06:11:28.499Z,112
2018-07-23T06:11:54.194Z,112
2018-07-23T06:12:19.879Z,112
2018-07-23T06:12:45.517Z,112
2018-07-23T06:13:11.377Z,112
2018-07-23T06:13:37.251Z,112
2018-07-23T06:14:02.874Z,112
2018-07-23T06:14:28.534Z,112